createdAt,value
2019-05-09T00:04:58.333Z,11.88
2019-05-09T00:10:04.088Z,11.91
2019-05-09T00:15:08.505Z,11.95
2019-05-09T00:20:13.657Z,11.95
2019-05-09T00:25:17.766Z,11.77
2019-05-09T00:30:23.165Z,11.54
2019-05-09T00:35:27.292Z,11.35
2019-05-09T00:40:31.302Z,11.25
2019-05-09T00:45:35.385Z,11.15
2019-05-09T00:50:39.404Z,11.05
2019-05-09T00:55:43.719Z,11.05
2019-05-09T01:00:47.829Z,11.02
2019-05-09T01:05:54.161Z,11.07
2019-05-09T01:11:09.330Z,11.11
2019-05-09T01:16:04.705Z,11.08
2019-05-09T01:21:09.032Z,11.12
2019-05-09T01:26:13.360Z,11.17
2019-05-09T01:31:17.510Z,11.24
2019-05-09T01:36:23.506Z,11.27
2019-05-09T01:41:31.112Z,11.27
2019-05-09T01:46:34.098Z,11.31
2019-05-09T01:51:38.251Z,11.30
2019-05-09T01:56:43.115Z,11.41
2019-05-09T02:01:47.206Z,11.44
2019-05-09T02:06:53.606Z,11.45
2019-05-09T02:11:57.040Z,11.45
2019-05-09T02:17:03.110Z,11.45
2019-05-09T02:22:06.897Z,11.46
2019-05-09T02:27:13.140Z,11.42
2019-05-09T02:32:16.807Z,11.37
2019-05-09T02:37:20.852Z,11.23
2019-05-09T02:42:27.318Z,11.08
2019-05-09T02:47:30.774Z,11.06
2019-05-09T02:52:34.890Z,10.99
2019-05-09T02:57:39.818Z,10.98
2019-05-09T03:02:43.855Z,10.95
2019-05-09T03:07:48.818Z,11.00
2019-05-09T03:12:53.105Z,11.05
2019-05-09T03:17:59.889Z,11.09
2019-05-09T03:23:02.814Z,11.08
2019-05-09T03:28:09.697Z,11.14
2019-05-09T03:33:12.627Z,11.18
2019-05-09T03:38:17.953Z,11.19
2019-05-09T03:43:23.810Z,11.16
2019-05-09T03:48:28.360Z,11.23
2019-05-09T03:53:32.423Z,11.20
2019-05-09T03:58:38.460Z,11.21
2019-05-09T04:03:42.151Z,11.27
2019-05-09T04:08:48.202Z,11.29
2019-05-09T04:13:51.967Z,11.33
2019-05-09T04:18:57.971Z,11.35
2019-05-09T04:24:01.709Z,11.40
2019-05-09T04:29:07.855Z,11.46
2019-05-09T04:34:11.505Z,11.52
2019-05-09T04:39:23.436Z,11.64
2019-05-09T04:44:22.091Z,11.73
2019-05-09T04:49:29.629Z,11.77
2019-05-09T04:54:32.764Z,11.82
2019-05-09T04:59:37.462Z,11.86
2019-05-09T05:04:41.606Z,11.87
2019-05-09T05:09:45.611Z,11.96
2019-05-09T05:14:49.718Z,12.04
2019-05-09T05:19:53.749Z,12.20
2019-05-09T05:24:59.649Z,12.45
2019-05-09T05:30:04.187Z,12.40
2019-05-09T05:35:08.755Z,12.37
2019-05-09T05:40:13.229Z,12.52
2019-05-09T05:45:18.208Z,12.79
2019-05-09T05:50:23.214Z,13.04
2019-05-09T05:55:27.956Z,12.98
2019-05-09T06:00:32.550Z,12.87
2019-05-09T06:05:38.394Z,12.77
2019-05-09T06:10:43.450Z,12.71
2019-05-09T06:15:48.205Z,12.86
2019-05-09T06:20:52.686Z,13.12
2019-05-09T06:25:58.805Z,13.36
2019-05-09T06:31:02.789Z,13.38
2019-05-09T06:36:08.025Z,13.37
2019-05-09T06:41:12.892Z,13.01
2019-05-09T06:46:18.293Z,12.91
2019-05-09T06:51:22.575Z,12.93
2019-05-09T06:56:28.265Z,12.96
2019-05-09T07:01:32.571Z,12.98
2019-05-09T07:06:38.033Z,12.89
2019-05-09T07:11:42.559Z,12.94
2019-05-09T07:16:47.879Z,12.90
2019-05-09T07:21:52.259Z,13.01
2019-05-09T07:26:58.372Z,13.47
2019-05-09T07:32:02.068Z,14.18
2019-05-09T07:37:08.361Z,14.55
2019-05-09T07:42:12.133Z,14.40
2019-05-09T07:47:17.805Z,14.07
2019-05-09T07:52:23.390Z,14.43
2019-05-09T07:57:28.536Z,14.72
2019-05-09T08:02:33.126Z,15.11
2019-05-09T08:07:38.194Z,15.62
2019-05-09T08:12:42.468Z,15.83
2019-05-09T08:17:48.809Z,16.33
2019-05-09T08:22:58.745Z,17.49
2019-05-09T08:27:58.965Z,18.03
2019-05-09T08:33:03.226Z,17.56
2019-05-09T08:38:08.485Z,17.32
2019-05-09T08:43:13.389Z,17.64
2019-05-09T08:48:18.404Z,17.76
2019-05-09T08:53:22.430Z,19.00
2019-05-09T08:58:27.739Z,19.88
2019-05-09T09:03:31.911Z,21.14
2019-05-09T09:08:37.922Z,22.98
2019-05-09T09:13:42.371Z,25.27
2019-05-09T09:18:48.135Z,23.05
2019-05-09T09:23:52.199Z,21.25
2019-05-09T09:28:57.729Z,18.76
2019-05-09T09:34:02.338Z,17.94
2019-05-09T09:39:07.997Z,19.73
2019-05-09T09:44:12.353Z,23.38
2019-05-09T09:49:18.079Z,21.55
2019-05-09T09:54:22.303Z,21.26
2019-05-09T09:59:28.248Z,23.48
2019-05-09T10:04:32.501Z,21.98
2019-05-09T10:09:36.815Z,19.73
2019-05-09T10:14:41.145Z,18.62
2019-05-09T10:19:48.024Z,17.32
2019-05-09T10:24:51.085Z,16.26
2019-05-09T10:29:56.817Z,15.63
2019-05-09T10:35:00.911Z,15.59
2019-05-09T10:40:05.822Z,15.81
2019-05-09T10:45:10.574Z,16.10
2019-05-09T10:50:14.668Z,16.53
2019-05-09T10:55:18.752Z,16.93
2019-05-09T11:00:22.850Z,17.14
2019-05-09T11:05:27.759Z,17.78
2019-05-09T11:10:32.995Z,17.76
2019-05-09T11:15:37.715Z,18.98
2019-05-09T11:20:41.868Z,20.22
2019-05-09T11:25:47.273Z,20.92
2019-05-09T11:30:51.456Z,21.14
2019-05-09T11:35:58.011Z,21.47
2019-05-09T11:41:01.289Z,21.22
2019-05-09T11:46:05.388Z,21.93
2019-05-09T11:51:11.126Z,21.66
2019-05-09T11:56:17.697Z,22.59
2019-05-09T12:01:21.165Z,21.92
2019-05-09T12:06:25.178Z,21.34
2019-05-09T12:11:29.214Z,20.45
2019-05-09T12:16:34.013Z,20.44
2019-05-09T12:21:47.157Z,20.41
2019-05-09T12:26:44.073Z,20.39
2019-05-09T12:31:48.648Z,19.69
2019-05-09T12:36:52.780Z,18.31
2019-05-09T12:41:57.901Z,17.39
2019-05-09T12:47:01.966Z,16.93
2019-05-09T12:52:08.217Z,17.28
2019-05-09T12:57:12.628Z,18.03
2019-05-09T13:02:17.786Z,19.35
2019-05-09T13:07:22.053Z,19.49
2019-05-09T13:12:28.912Z,19.33
2019-05-09T13:17:31.859Z,20.33
2019-05-09T13:22:35.919Z,22.19
2019-05-09T13:27:39.966Z,23.02
2019-05-09T13:32:44.265Z,21.71
2019-05-09T13:37:49.093Z,20.92
2019-05-09T13:42:53.422Z,19.60
2019-05-09T13:47:57.985Z,19.59
2019-05-09T13:53:02.237Z,19.72
2019-05-09T13:58:07.439Z,20.16
2019-05-09T14:03:11.702Z,21.02
2019-05-09T14:08:18.170Z,21.82
2019-05-09T14:13:23.554Z,21.20
2019-05-09T14:18:27.677Z,19.75
2019-05-09T14:23:35.798Z,20.02
2019-05-09T14:28:37.629Z,21.14
2019-05-09T14:33:41.697Z,22.96
2019-05-09T14:38:48.308Z,23.06
2019-05-09T14:43:51.521Z,21.46
2019-05-09T14:48:58.201Z,20.41
2019-05-09T14:54:01.431Z,20.77
2019-05-09T14:59:05.766Z,21.66
2019-05-09T15:04:10.111Z,21.96
2019-05-09T15:09:14.590Z,20.27
2019-05-09T15:14:19.042Z,19.36
2019-05-09T15:19:24.282Z,19.72
2019-05-09T15:24:29.049Z,20.06
2019-05-09T15:29:33.624Z,20.22
2019-05-09T15:34:38.308Z,21.01
2019-05-09T15:39:42.438Z,20.48
2019-05-09T15:44:47.667Z,20.27
2019-05-09T15:49:52.340Z,20.21
2019-05-09T15:54:58.052Z,21.62
2019-05-09T16:00:02.817Z,22.04
2019-05-09T16:05:10.612Z,21.79
2019-05-09T16:10:13.018Z,20.79
2019-05-09T16:15:18.280Z,19.60
2019-05-09T16:20:36.487Z,19.37
2019-05-09T16:25:28.493Z,20.10
2019-05-09T16:30:32.517Z,20.33
2019-05-09T16:35:38.187Z,20.86
2019-05-09T16:40:42.731Z,21.98
2019-05-09T16:45:47.653Z,22.13
2019-05-09T16:51:00.493Z,21.97
2019-05-09T16:55:58.057Z,22.17
2019-05-09T17:01:02.099Z,22.49
2019-05-09T17:06:07.651Z,21.89
2019-05-09T17:11:11.883Z,20.93
2019-05-09T17:16:17.774Z,20.52
2019-05-09T17:21:24.383Z,20.60
2019-05-09T17:26:28.406Z,19.86
2019-05-09T17:31:32.912Z,19.07
2019-05-09T17:36:38.549Z,18.69
2019-05-09T17:41:43.011Z,18.35
2019-05-09T17:46:48.004Z,18.01
2019-05-09T17:51:52.217Z,17.90
2019-05-09T17:56:57.346Z,17.95
2019-05-09T18:02:02.010Z,18.01
2019-05-09T18:07:08.546Z,18.03
2019-05-09T18:12:11.852Z,17.93
2019-05-09T18:17:17.959Z,17.83
2019-05-09T18:22:21.846Z,17.63
2019-05-09T18:27:27.564Z,17.34
2019-05-09T18:32:31.583Z,16.97
2019-05-09T18:37:37.247Z,16.46
2019-05-09T18:42:42.081Z,16.03
2019-05-09T18:47:48.157Z,15.64
2019-05-09T18:52:53.713Z,15.36
2019-05-09T18:57:57.893Z,15.20
2019-05-09T19:03:06.222Z,15.05
2019-05-09T19:08:13.062Z,14.96
2019-05-09T19:13:18.640Z,14.82
2019-05-09T19:18:26.673Z,14.71
2019-05-09T19:23:31.132Z,14.44
2019-05-09T19:28:37.763Z,14.23
2019-05-09T19:33:46.346Z,14.08
2019-05-09T19:38:51.464Z,13.95
2019-05-09T19:43:55.638Z,13.90
2019-05-09T19:49:02.909Z,13.83
2019-05-09T19:54:14.805Z,13.72
2019-05-09T19:59:22.789Z,13.65
2019-05-09T20:04:30.629Z,13.59
2019-05-09T20:09:38.520Z,13.52
2019-05-09T20:14:49.512Z,13.52
2019-05-09T20:19:54.209Z,13.47
2019-05-09T20:25:02.898Z,13.50
2019-05-09T20:30:08.802Z,13.46
2019-05-09T20:35:13.101Z,13.43
2019-05-09T20:40:17.225Z,13.31
2019-05-09T20:45:21.803Z,13.24
2019-05-09T20:50:26.861Z,12.98
2019-05-09T20:55:31.000Z,12.77
2019-05-09T21:00:35.223Z,12.54
2019-05-09T21:05:39.494Z,12.39
2019-05-09T21:10:43.746Z,12.41
2019-05-09T21:15:47.731Z,12.31
2019-05-09T21:20:51.926Z,12.21
2019-05-09T21:25:58.128Z,12.23
2019-05-09T21:31:02.431Z,12.23
2019-05-09T21:36:06.766Z,12.13
2019-05-09T21:41:12.882Z,12.04
2019-05-09T21:46:17.061Z,11.92
2019-05-09T21:51:21.458Z,11.88
2019-05-09T21:56:26.451Z,11.78
2019-05-09T22:01:30.734Z,11.77
2019-05-09T22:06:35.189Z,11.79
2019-05-09T22:11:39.299Z,11.67
2019-05-09T22:16:43.602Z,11.54
2019-05-09T22:21:47.949Z,11.43
2019-05-09T22:26:52.051Z,11.35
2019-05-09T22:31:56.565Z,11.31
2019-05-09T22:37:00.967Z,11.16
2019-05-09T22:42:05.096Z,11.04
2019-05-09T22:47:09.568Z,11.05
2019-05-09T22:52:13.684Z,10.98
2019-05-09T22:57:18.090Z,10.92
2019-05-09T23:02:22.369Z,10.91
2019-05-09T23:07:26.418Z,10.89
2019-05-09T23:12:30.441Z,10.87
2019-05-09T23:17:35.078Z,10.88
2019-05-09T23:22:39.402Z,10.86
2019-05-09T23:27:44.200Z,10.89
2019-05-09T23:32:48.311Z,10.89
2019-05-09T23:37:52.578Z,10.89
2019-05-09T23:42:56.896Z,10.80
2019-05-09T23:48:00.935Z,10.78
2019-05-09T23:53:05.117Z,10.77
2019-05-09T23:58:09.156Z,10.74
